Latham, NY (12110)

9:46 PM EDT on August 23, 2016 (GMT -0400)
Newtonville | | Change Station

Elev 365 ft 42.72 °N, 73.76 °W | Updated 284 days ago

Clear
Clear
64 °F
Feels Like 64 °F
N
2
Wind Variable Wind from SSW
Gusts mph

Today
High -- | Low -- °F
--% Chance of Precip.
Yesterday
High -- | Low -- °F
Precip. -- in
Pressure 30.24 in
Visibility 10.0 miles
Clouds Clear
Dew Point 58 °F
Humidity 83%
Rainfall in
Snow Depth Not available.
6:10 AM 7:43 PM
Waning Gibbous, 62% visible
METAR KALB 240051Z 00000KT 10SM CLR 21/14 A3023 RMK AO2 SLP238 T02060144
Pressure 30.24 in
Visibility 10.0 miles
Clouds Clear
Dew Point 58 °F
Humidity 83%
Rainfall in
Snow Depth Not available.
6:10 AM 7:43 PM
Waning Gibbous, 62% visible
METAR KALB 240051Z 00000KT 10SM CLR 21/14 A3023 RMK AO2 SLP238 T02060144

10-Day Weather Forecast

Almanac

Astronomy

Aug. 23, 2016 Rise Set
Actual Time
Civil Twilight
Nautical Twilight
Astronomical Twilight
Moon
Length of Visible Light
Length of Day
Tomorrow will be .
, % of the Moon is Illuminated

Today's Extremes

State Highs State Lows

Community

WunderPhotos

Upload Photos

1,934,520 photos uploaded!

WunderBlog® & News

Nearby

Air Quality

  Air Quality AQ Index Pollutant
Not available.

Snow Depth

Station Depth Elevation

Earthquake Activity

City Distance Mag. Time & Date
Minimum magnitude displayed is 2.5.

Coastal Water Temperatures

Place Temperature

Stations

Nearby Weather Stations

Station Location Temp. Windchill Dew Point Humidity Wind Precip. Elev Updated Type
                   

Watches & Warnings

There are currently no watches in effect.